sensor_id;sensor_type;location;lat;lon;timestamp;P1;durP1;ratioP1;P2;durP2;ratioP2
77016;SDS011;65949;53.132;17.930;2024-02-26T00:01:48;138.90;;;58.00;;
77016;SDS011;65949;53.132;17.930;2024-02-26T00:04:15;130.90;;;54.80;;
77016;SDS011;65949;53.132;17.930;2024-02-26T00:06:42;134.30;;;53.90;;
77016;SDS011;65949;53.132;17.930;2024-02-26T00:09:09;128.50;;;51.00;;
77016;SDS011;65949;53.132;17.930;2024-02-26T00:11:36;127.80;;;50.90;;
77016;SDS011;65949;53.132;17.930;2024-02-26T00:14:03;121.70;;;51.70;;
77016;SDS011;65949;53.132;17.930;2024-02-26T00:16:30;119.00;;;49.30;;
77016;SDS011;65949;53.132;17.930;2024-02-26T00:18:57;115.40;;;51.40;;
77016;SDS011;65949;53.132;17.930;2024-02-26T00:21:24;117.60;;;51.00;;
77016;SDS011;65949;53.132;17.930;2024-02-26T00:23:51;124.70;;;53.70;;
77016;SDS011;65949;53.132;17.930;2024-02-26T00:26:19;121.60;;;53.20;;
77016;SDS011;65949;53.132;17.930;2024-02-26T00:28:45;131.30;;;55.90;;
77016;SDS011;65949;53.132;17.930;2024-02-26T00:31:12;132.40;;;54.70;;
77016;SDS011;65949;53.132;17.930;2024-02-26T00:33:39;133.00;;;53.40;;
77016;SDS011;65949;53.132;17.930;2024-02-26T00:36:05;124.00;;;51.60;;
77016;SDS011;65949;53.132;17.930;2024-02-26T00:38:32;125.50;;;52.40;;
77016;SDS011;65949;53.132;17.930;2024-02-26T00:40:59;128.50;;;54.10;;
77016;SDS011;65949;53.132;17.930;2024-02-26T00:43:26;129.40;;;51.30;;
77016;SDS011;65949;53.132;17.930;2024-02-26T00:45:52;124.90;;;53.50;;
77016;SDS011;65949;53.132;17.930;2024-02-26T00:48:19;120.20;;;49.40;;
77016;SDS011;65949;53.132;17.930;2024-02-26T00:50:46;115.60;;;49.10;;
77016;SDS011;65949;53.132;17.930;2024-02-26T00:53:13;119.20;;;50.40;;
77016;SDS011;65949;53.132;17.930;2024-02-26T00:55:39;113.80;;;49.80;;
77016;SDS011;65949;53.132;17.930;2024-02-26T00:58:06;125.10;;;51.00;;
77016;SDS011;65949;53.132;17.930;2024-02-26T01:00:33;128.20;;;53.00;;
77016;SDS011;65949;53.132;17.930;2024-02-26T01:03:00;122.00;;;51.20;;
77016;SDS011;65949;53.132;17.930;2024-02-26T01:05:27;121.80;;;52.60;;
77016;SDS011;65949;53.132;17.930;2024-02-26T01:07:54;132.80;;;55.70;;
77016;SDS011;65949;53.132;17.930;2024-02-26T01:10:21;116.20;;;49.90;;
77016;SDS011;65949;53.132;17.930;2024-02-26T01:12:47;130.50;;;53.80;;
77016;SDS011;65949;53.132;17.930;2024-02-26T01:15:14;116.50;;;48.70;;
77016;SDS011;65949;53.132;17.930;2024-02-26T01:17:41;119.40;;;49.30;;
77016;SDS011;65949;53.132;17.930;2024-02-26T01:20:07;102.20;;;46.00;;
77016;SDS011;65949;53.132;17.930;2024-02-26T01:22:35;99.00;;;46.40;;
77016;SDS011;65949;53.132;17.930;2024-02-26T01:25:02;98.90;;;47.60;;
77016;SDS011;65949;53.132;17.930;2024-02-26T01:27:29;118.70;;;50.80;;
77016;SDS011;65949;53.132;17.930;2024-02-26T01:29:55;116.30;;;52.30;;
77016;SDS011;65949;53.132;17.930;2024-02-26T01:32:22;124.30;;;52.30;;
77016;SDS011;65949;53.132;17.930;2024-02-26T01:34:49;109.90;;;46.00;;
77016;SDS011;65949;53.132;17.930;2024-02-26T01:37:16;114.20;;;47.90;;
77016;SDS011;65949;53.132;17.930;2024-02-26T01:39:43;113.20;;;45.60;;
77016;SDS011;65949;53.132;17.930;2024-02-26T01:42:10;114.00;;;48.10;;
77016;SDS011;65949;53.132;17.930;2024-02-26T01:44:36;110.50;;;49.00;;
77016;SDS011;65949;53.132;17.930;2024-02-26T01:47:05;112.00;;;48.80;;
77016;SDS011;65949;53.132;17.930;2024-02-26T01:49:34;118.30;;;50.70;;
77016;SDS011;65949;53.132;17.930;2024-02-26T01:52:02;114.30;;;49.70;;
77016;SDS011;65949;53.132;17.930;2024-02-26T01:54:33;121.00;;;52.70;;
77016;SDS011;65949;53.132;17.930;2024-02-26T01:57:01;119.20;;;51.20;;
77016;SDS011;65949;53.132;17.930;2024-02-26T01:59:30;115.30;;;49.80;;
77016;SDS011;65949;53.132;17.930;2024-02-26T02:01:58;101.20;;;43.60;;
77016;SDS011;65949;53.132;17.930;2024-02-26T02:04:28;103.00;;;44.90;;
77016;SDS011;65949;53.132;17.930;2024-02-26T02:06:54;100.10;;;42.80;;
77016;SDS011;65949;53.132;17.930;2024-02-26T02:09:23;104.20;;;44.10;;
77016;SDS011;65949;53.132;17.930;2024-02-26T02:11:50;106.10;;;45.40;;
77016;SDS011;65949;53.132;17.930;2024-02-26T02:14:16;99.80;;;43.00;;
77016;SDS011;65949;53.132;17.930;2024-02-26T02:16:43;100.90;;;43.00;;
77016;SDS011;65949;53.132;17.930;2024-02-26T02:19:10;94.10;;;41.80;;
77016;SDS011;65949;53.132;17.930;2024-02-26T02:21:37;94.00;;;41.20;;
77016;SDS011;65949;53.132;17.930;2024-02-26T02:24:03;90.70;;;41.40;;
77016;SDS011;65949;53.132;17.930;2024-02-26T02:26:30;92.40;;;41.10;;
77016;SDS011;65949;53.132;17.930;2024-02-26T02:28:57;92.60;;;43.30;;
77016;SDS011;65949;53.132;17.930;2024-02-26T02:31:25;82.80;;;38.40;;
77016;SDS011;65949;53.132;17.930;2024-02-26T02:33:52;91.50;;;41.10;;
77016;SDS011;65949;53.132;17.930;2024-02-26T02:36:19;92.20;;;42.60;;
77016;SDS011;65949;53.132;17.930;2024-02-26T02:38:50;111.60;;;55.50;;
77016;SDS011;65949;53.132;17.930;2024-02-26T02:41:17;112.20;;;52.50;;
77016;SDS011;65949;53.132;17.930;2024-02-26T02:43:45;107.50;;;51.00;;
77016;SDS011;65949;53.132;17.930;2024-02-26T02:46:11;94.80;;;45.10;;
77016;SDS011;65949;53.132;17.930;2024-02-26T02:48:38;103.50;;;46.80;;
77016;SDS011;65949;53.132;17.930;2024-02-26T02:51:05;99.40;;;42.20;;
77016;SDS011;65949;53.132;17.930;2024-02-26T02:53:32;90.00;;;40.70;;
77016;SDS011;65949;53.132;17.930;2024-02-26T02:55:58;104.10;;;41.80;;
77016;SDS011;65949;53.132;17.930;2024-02-26T02:58:25;99.60;;;40.40;;
77016;SDS011;65949;53.132;17.930;2024-02-26T03:00:52;78.30;;;33.50;;
77016;SDS011;65949;53.132;17.930;2024-02-26T03:03:21;79.60;;;35.80;;
77016;SDS011;65949;53.132;17.930;2024-02-26T03:05:50;96.50;;;36.30;;
77016;SDS011;65949;53.132;17.930;2024-02-26T03:08:17;79.20;;;30.50;;
77016;SDS011;65949;53.132;17.930;2024-02-26T03:10:46;73.80;;;29.90;;
77016;SDS011;65949;53.132;17.930;2024-02-26T03:13:13;79.40;;;32.40;;
77016;SDS011;65949;53.132;17.930;2024-02-26T03:15:40;77.90;;;32.20;;
77016;SDS011;65949;53.132;17.930;2024-02-26T03:18:07;72.20;;;30.70;;
77016;SDS011;65949;53.132;17.930;2024-02-26T03:20:34;63.80;;;27.70;;
77016;SDS011;65949;53.132;17.930;2024-02-26T03:23:00;64.60;;;28.50;;
77016;SDS011;65949;53.132;17.930;2024-02-26T03:25:27;66.00;;;28.80;;
77016;SDS011;65949;53.132;17.930;2024-02-26T03:27:54;62.40;;;27.70;;
77016;SDS011;65949;53.132;17.930;2024-02-26T03:30:21;56.70;;;24.00;;
77016;SDS011;65949;53.132;17.930;2024-02-26T03:32:47;58.40;;;24.90;;
77016;SDS011;65949;53.132;17.930;2024-02-26T03:35:14;52.80;;;25.60;;
77016;SDS011;65949;53.132;17.930;2024-02-26T03:37:41;50.00;;;24.00;;
77016;SDS011;65949;53.132;17.930;2024-02-26T03:40:07;55.40;;;26.60;;
77016;SDS011;65949;53.132;17.930;2024-02-26T03:42:34;55.50;;;27.30;;
77016;SDS011;65949;53.132;17.930;2024-02-26T03:45:01;49.50;;;25.50;;
77016;SDS011;65949;53.132;17.930;2024-02-26T03:47:28;54.60;;;24.40;;
77016;SDS011;65949;53.132;17.930;2024-02-26T03:49:55;49.60;;;23.60;;
77016;SDS011;65949;53.132;17.930;2024-02-26T03:52:22;53.60;;;25.30;;
77016;SDS011;65949;53.132;17.930;2024-02-26T03:54:48;65.30;;;26.50;;
77016;SDS011;65949;53.132;17.930;2024-02-26T03:57:15;64.30;;;24.10;;
77016;SDS011;65949;53.132;17.930;2024-02-26T03:59:42;59.00;;;25.30;;
77016;SDS011;65949;53.132;17.930;2024-02-26T04:02:08;69.10;;;26.60;;
77016;SDS011;65949;53.132;17.930;2024-02-26T04:04:36;68.40;;;28.80;;
77016;SDS011;65949;53.132;17.930;2024-02-26T04:07:02;65.40;;;26.10;;
77016;SDS011;65949;53.132;17.930;2024-02-26T04:09:31;66.30;;;30.10;;
77016;SDS011;65949;53.132;17.930;2024-02-26T04:11:58;76.30;;;32.90;;
77016;SDS011;65949;53.132;17.930;2024-02-26T04:14:25;70.20;;;29.30;;
77016;SDS011;65949;53.132;17.930;2024-02-26T04:16:52;79.40;;;29.50;;
77016;SDS011;65949;53.132;17.930;2024-02-26T04:19:20;81.20;;;29.40;;
77016;SDS011;65949;53.132;17.930;2024-02-26T04:21:47;77.10;;;26.20;;
77016;SDS011;65949;53.132;17.930;2024-02-26T04:24:14;74.70;;;26.20;;
77016;SDS011;65949;53.132;17.930;2024-02-26T04:26:41;72.60;;;27.00;;
77016;SDS011;65949;53.132;17.930;2024-02-26T04:29:07;79.90;;;27.60;;
77016;SDS011;65949;53.132;17.930;2024-02-26T04:31:34;78.50;;;28.50;;
77016;SDS011;65949;53.132;17.930;2024-02-26T04:34:01;75.10;;;27.90;;
77016;SDS011;65949;53.132;17.930;2024-02-26T04:36:28;85.20;;;30.40;;
77016;SDS011;65949;53.132;17.930;2024-02-26T04:38:54;81.90;;;30.20;;
77016;SDS011;65949;53.132;17.930;2024-02-26T04:41:22;78.70;;;30.40;;
77016;SDS011;65949;53.132;17.930;2024-02-26T04:43:48;76.70;;;28.00;;
77016;SDS011;65949;53.132;17.930;2024-02-26T04:46:15;80.10;;;29.20;;
77016;SDS011;65949;53.132;17.930;2024-02-26T04:48:42;91.10;;;31.40;;
77016;SDS011;65949;53.132;17.930;2024-02-26T04:51:09;77.90;;;27.50;;
77016;SDS011;65949;53.132;17.930;2024-02-26T04:53:36;71.90;;;26.00;;
77016;SDS011;65949;53.132;17.930;2024-02-26T04:56:02;69.70;;;26.00;;
77016;SDS011;65949;53.132;17.930;2024-02-26T04:58:29;75.50;;;27.80;;
77016;SDS011;65949;53.132;17.930;2024-02-26T05:00:56;71.50;;;27.00;;
77016;SDS011;65949;53.132;17.930;2024-02-26T05:03:23;60.20;;;23.50;;
77016;SDS011;65949;53.132;17.930;2024-02-26T05:05:50;64.00;;;24.50;;
77016;SDS011;65949;53.132;17.930;2024-02-26T05:08:16;62.90;;;23.90;;
77016;SDS011;65949;53.132;17.930;2024-02-26T05:10:44;58.10;;;22.90;;
77016;SDS011;65949;53.132;17.930;2024-02-26T05:13:12;67.40;;;24.50;;
77016;SDS011;65949;53.132;17.930;2024-02-26T05:15:40;60.40;;;19.80;;
77016;SDS011;65949;53.132;17.930;2024-02-26T05:18:07;58.30;;;21.00;;
77016;SDS011;65949;53.132;17.930;2024-02-26T05:20:34;67.50;;;22.90;;
77016;SDS011;65949;53.132;17.930;2024-02-26T05:23:02;57.90;;;22.60;;
77016;SDS011;65949;53.132;17.930;2024-02-26T05:25:30;60.90;;;22.90;;
77016;SDS011;65949;53.132;17.930;2024-02-26T05:27:57;65.10;;;24.80;;
77016;SDS011;65949;53.132;17.930;2024-02-26T05:30:24;69.50;;;25.10;;
77016;SDS011;65949;53.132;17.930;2024-02-26T05:32:50;65.20;;;23.70;;
77016;SDS011;65949;53.132;17.930;2024-02-26T05:35:17;58.40;;;22.10;;
77016;SDS011;65949;53.132;17.930;2024-02-26T05:37:44;63.90;;;20.40;;
77016;SDS011;65949;53.132;17.930;2024-02-26T05:40:11;63.30;;;21.80;;
77016;SDS011;65949;53.132;17.930;2024-02-26T05:42:38;53.20;;;19.40;;
77016;SDS011;65949;53.132;17.930;2024-02-26T05:45:05;59.10;;;23.30;;
77016;SDS011;65949;53.132;17.930;2024-02-26T05:47:33;58.20;;;21.60;;
77016;SDS011;65949;53.132;17.930;2024-02-26T05:50:00;58.70;;;21.90;;
77016;SDS011;65949;53.132;17.930;2024-02-26T05:52:28;65.40;;;21.30;;
77016;SDS011;65949;53.132;17.930;2024-02-26T05:54:58;57.50;;;20.30;;
77016;SDS011;65949;53.132;17.930;2024-02-26T05:57:24;65.70;;;22.20;;
77016;SDS011;65949;53.132;17.930;2024-02-26T05:59:51;55.50;;;22.30;;
77016;SDS011;65949;53.132;17.930;2024-02-26T06:02:18;60.20;;;20.60;;
77016;SDS011;65949;53.132;17.930;2024-02-26T06:04:44;55.80;;;20.90;;
77016;SDS011;65949;53.132;17.930;2024-02-26T06:07:12;48.70;;;19.40;;
77016;SDS011;65949;53.132;17.930;2024-02-26T06:09:39;49.70;;;19.10;;
77016;SDS011;65949;53.132;17.930;2024-02-26T06:12:06;44.70;;;19.00;;
77016;SDS011;65949;53.132;17.930;2024-02-26T06:14:33;39.80;;;17.50;;
77016;SDS011;65949;53.132;17.930;2024-02-26T06:17:00;43.00;;;17.50;;
77016;SDS011;65949;53.132;17.930;2024-02-26T06:19:27;38.30;;;18.50;;
77016;SDS011;65949;53.132;17.930;2024-02-26T06:21:53;44.50;;;19.00;;
77016;SDS011;65949;53.132;17.930;2024-02-26T06:24:20;40.30;;;18.20;;
77016;SDS011;65949;53.132;17.930;2024-02-26T06:26:48;47.10;;;19.20;;
77016;SDS011;65949;53.132;17.930;2024-02-26T06:29:15;48.90;;;19.20;;
77016;SDS011;65949;53.132;17.930;2024-02-26T06:31:42;49.10;;;18.40;;
77016;SDS011;65949;53.132;17.930;2024-02-26T06:34:09;46.90;;;17.50;;
77016;SDS011;65949;53.132;17.930;2024-02-26T06:36:36;51.20;;;19.20;;
77016;SDS011;65949;53.132;17.930;2024-02-26T06:39:02;47.80;;;17.90;;
77016;SDS011;65949;53.132;17.930;2024-02-26T06:41:29;42.70;;;17.20;;
77016;SDS011;65949;53.132;17.930;2024-02-26T06:43:56;44.60;;;18.30;;
77016;SDS011;65949;53.132;17.930;2024-02-26T06:46:23;55.50;;;21.50;;
77016;SDS011;65949;53.132;17.930;2024-02-26T06:48:50;61.70;;;22.80;;
77016;SDS011;65949;53.132;17.930;2024-02-26T06:51:17;78.00;;;33.90;;
77016;SDS011;65949;53.132;17.930;2024-02-26T06:53:44;58.80;;;24.10;;
77016;SDS011;65949;53.132;17.930;2024-02-26T06:56:10;57.10;;;25.30;;
77016;SDS011;65949;53.132;17.930;2024-02-26T06:58:37;61.90;;;28.30;;
77016;SDS011;65949;53.132;17.930;2024-02-26T07:01:04;62.00;;;25.10;;
77016;SDS011;65949;53.132;17.930;2024-02-26T07:03:31;71.00;;;26.30;;
77016;SDS011;65949;53.132;17.930;2024-02-26T07:05:59;67.70;;;27.80;;
77016;SDS011;65949;53.132;17.930;2024-02-26T07:08:25;53.00;;;21.30;;
77016;SDS011;65949;53.132;17.930;2024-02-26T07:10:52;56.30;;;21.00;;
77016;SDS011;65949;53.132;17.930;2024-02-26T07:13:19;61.80;;;22.50;;
77016;SDS011;65949;53.132;17.930;2024-02-26T07:15:45;62.90;;;21.90;;
77016;SDS011;65949;53.132;17.930;2024-02-26T07:18:12;68.90;;;20.50;;
77016;SDS011;65949;53.132;17.930;2024-02-26T07:20:39;99.90;;;25.80;;
77016;SDS011;65949;53.132;17.930;2024-02-26T07:23:06;79.10;;;25.60;;
77016;SDS011;65949;53.132;17.930;2024-02-26T07:25:33;80.30;;;25.20;;
77016;SDS011;65949;53.132;17.930;2024-02-26T07:27:59;79.90;;;26.90;;
77016;SDS011;65949;53.132;17.930;2024-02-26T07:30:26;68.80;;;25.40;;
77016;SDS011;65949;53.132;17.930;2024-02-26T07:32:53;50.90;;;19.70;;
77016;SDS011;65949;53.132;17.930;2024-02-26T07:35:19;55.40;;;23.10;;
77016;SDS011;65949;53.132;17.930;2024-02-26T07:37:49;86.40;;;28.60;;
77016;SDS011;65949;53.132;17.930;2024-02-26T07:40:16;75.00;;;25.50;;
77016;SDS011;65949;53.132;17.930;2024-02-26T07:42:43;65.40;;;24.70;;
77016;SDS011;65949;53.132;17.930;2024-02-26T07:45:10;67.80;;;24.40;;
77016;SDS011;65949;53.132;17.930;2024-02-26T07:47:37;64.20;;;25.80;;
77016;SDS011;65949;53.132;17.930;2024-02-26T07:50:09;75.50;;;29.60;;
77016;SDS011;65949;53.132;17.930;2024-02-26T07:52:38;84.00;;;33.20;;
77016;SDS011;65949;53.132;17.930;2024-02-26T07:55:06;97.00;;;33.60;;
77016;SDS011;65949;53.132;17.930;2024-02-26T07:57:33;107.80;;;38.50;;
77016;SDS011;65949;53.132;17.930;2024-02-26T08:00:03;102.30;;;34.90;;
77016;SDS011;65949;53.132;17.930;2024-02-26T08:02:31;83.00;;;29.00;;
77016;SDS011;65949;53.132;17.930;2024-02-26T08:04:58;89.30;;;32.50;;
77016;SDS011;65949;53.132;17.930;2024-02-26T08:07:24;88.50;;;30.60;;
77016;SDS011;65949;53.132;17.930;2024-02-26T08:09:51;87.40;;;32.40;;
77016;SDS011;65949;53.132;17.930;2024-02-26T08:12:18;67.70;;;24.50;;
77016;SDS011;65949;53.132;17.930;2024-02-26T08:14:45;80.10;;;27.30;;
77016;SDS011;65949;53.132;17.930;2024-02-26T08:17:12;100.20;;;31.80;;
77016;SDS011;65949;53.132;17.930;2024-02-26T08:19:38;82.80;;;30.90;;
77016;SDS011;65949;53.132;17.930;2024-02-26T08:22:05;106.80;;;30.70;;
77016;SDS011;65949;53.132;17.930;2024-02-26T08:24:32;97.60;;;31.80;;
77016;SDS011;65949;53.132;17.930;2024-02-26T08:26:58;91.50;;;30.80;;
77016;SDS011;65949;53.132;17.930;2024-02-26T08:29:25;106.30;;;37.70;;
77016;SDS011;65949;53.132;17.930;2024-02-26T08:31:52;113.60;;;36.40;;
77016;SDS011;65949;53.132;17.930;2024-02-26T08:34:18;93.50;;;30.20;;
77016;SDS011;65949;53.132;17.930;2024-02-26T08:36:45;81.60;;;30.20;;
77016;SDS011;65949;53.132;17.930;2024-02-26T08:39:11;67.80;;;28.10;;
77016;SDS011;65949;53.132;17.930;2024-02-26T08:41:40;76.60;;;29.10;;
77016;SDS011;65949;53.132;17.930;2024-02-26T08:44:06;93.00;;;35.10;;
77016;SDS011;65949;53.132;17.930;2024-02-26T08:46:33;75.90;;;32.40;;
77016;SDS011;65949;53.132;17.930;2024-02-26T08:49:00;80.90;;;31.80;;
77016;SDS011;65949;53.132;17.930;2024-02-26T08:51:26;63.50;;;28.40;;
77016;SDS011;65949;53.132;17.930;2024-02-26T08:53:54;82.30;;;34.30;;
77016;SDS011;65949;53.132;17.930;2024-02-26T08:56:21;86.40;;;35.50;;
77016;SDS011;65949;53.132;17.930;2024-02-26T08:58:48;77.00;;;35.00;;
77016;SDS011;65949;53.132;17.930;2024-02-26T09:01:19;70.50;;;33.40;;
77016;SDS011;65949;53.132;17.930;2024-02-26T09:03:46;83.40;;;34.40;;
77016;SDS011;65949;53.132;17.930;2024-02-26T09:06:14;80.90;;;33.30;;
77016;SDS011;65949;53.132;17.930;2024-02-26T09:08:41;99.40;;;38.50;;
77016;SDS011;65949;53.132;17.930;2024-02-26T09:11:08;92.70;;;38.10;;
77016;SDS011;65949;53.132;17.930;2024-02-26T09:13:36;106.40;;;41.20;;
77016;SDS011;65949;53.132;17.930;2024-02-26T09:16:03;105.00;;;40.30;;
77016;SDS011;65949;53.132;17.930;2024-02-26T09:18:30;111.50;;;42.50;;
77016;SDS011;65949;53.132;17.930;2024-02-26T09:20:57;115.30;;;43.30;;
77016;SDS011;65949;53.132;17.930;2024-02-26T09:23:23;95.50;;;39.50;;
77016;SDS011;65949;53.132;17.930;2024-02-26T09:25:50;66.80;;;33.40;;
77016;SDS011;65949;53.132;17.930;2024-02-26T09:28:17;64.10;;;30.80;;
77016;SDS011;65949;53.132;17.930;2024-02-26T09:30:44;73.70;;;33.20;;
77016;SDS011;65949;53.132;17.930;2024-02-26T09:33:11;68.80;;;31.60;;
77016;SDS011;65949;53.132;17.930;2024-02-26T09:35:38;64.10;;;30.90;;
77016;SDS011;65949;53.132;17.930;2024-02-26T09:38:04;54.20;;;25.50;;
77016;SDS011;65949;53.132;17.930;2024-02-26T09:40:31;63.60;;;31.10;;
77016;SDS011;65949;53.132;17.930;2024-02-26T09:42:59;65.20;;;31.70;;
77016;SDS011;65949;53.132;17.930;2024-02-26T09:45:30;58.10;;;29.90;;
77016;SDS011;65949;53.132;17.930;2024-02-26T09:47:59;55.50;;;27.60;;
77016;SDS011;65949;53.132;17.930;2024-02-26T09:50:27;54.00;;;28.00;;
77016;SDS011;65949;53.132;17.930;2024-02-26T09:52:53;53.70;;;29.10;;
77016;SDS011;65949;53.132;17.930;2024-02-26T09:55:21;46.80;;;24.60;;
77016;SDS011;65949;53.132;17.930;2024-02-26T09:57:48;52.10;;;27.90;;
77016;SDS011;65949;53.132;17.930;2024-02-26T10:00:18;65.10;;;30.60;;
77016;SDS011;65949;53.132;17.930;2024-02-26T10:02:47;69.20;;;30.20;;
77016;SDS011;65949;53.132;17.930;2024-02-26T10:05:16;68.70;;;34.10;;
77016;SDS011;65949;53.132;17.930;2024-02-26T10:07:45;74.90;;;33.40;;
77016;SDS011;65949;53.132;17.930;2024-02-26T10:10:13;103.10;;;37.20;;
77016;SDS011;65949;53.132;17.930;2024-02-26T10:12:41;52.00;;;25.10;;
77016;SDS011;65949;53.132;17.930;2024-02-26T10:15:08;53.40;;;25.90;;
77016;SDS011;65949;53.132;17.930;2024-02-26T10:17:35;61.70;;;26.20;;
77016;SDS011;65949;53.132;17.930;2024-02-26T10:20:10;58.00;;;27.10;;
77016;SDS011;65949;53.132;17.930;2024-02-26T10:22:42;45.70;;;22.80;;
77016;SDS011;65949;53.132;17.930;2024-02-26T10:25:09;38.10;;;21.20;;
77016;SDS011;65949;53.132;17.930;2024-02-26T10:27:35;40.20;;;20.20;;
77016;SDS011;65949;53.132;17.930;2024-02-26T10:30:24;34.50;;;17.60;;
77016;SDS011;65949;53.132;17.930;2024-02-26T10:32:49;33.60;;;16.20;;
77016;SDS011;65949;53.132;17.930;2024-02-26T10:35:16;37.00;;;18.60;;
77016;SDS011;65949;53.132;17.930;2024-02-26T10:37:44;35.90;;;18.10;;
77016;SDS011;65949;53.132;17.930;2024-02-26T10:40:11;35.90;;;20.40;;
77016;SDS011;65949;53.132;17.930;2024-02-26T10:42:41;30.60;;;16.80;;
77016;SDS011;65949;53.132;17.930;2024-02-26T10:45:09;29.40;;;16.30;;
77016;SDS011;65949;53.132;17.930;2024-02-26T10:47:36;27.30;;;14.10;;
77016;SDS011;65949;53.132;17.930;2024-02-26T10:50:04;25.40;;;14.00;;
77016;SDS011;65949;53.132;17.930;2024-02-26T10:52:33;26.00;;;13.80;;
77016;SDS011;65949;53.132;17.930;2024-02-26T10:55:01;20.60;;;10.80;;
77016;SDS011;65949;53.132;17.930;2024-02-26T10:57:31;19.40;;;10.60;;
77016;SDS011;65949;53.132;17.930;2024-02-26T11:00:02;17.80;;;10.10;;
77016;SDS011;65949;53.132;17.930;2024-02-26T11:02:32;19.70;;;11.00;;
77016;SDS011;65949;53.132;17.930;2024-02-26T11:05:04;20.60;;;11.00;;
77016;SDS011;65949;53.132;17.930;2024-02-26T11:07:32;19.20;;;10.70;;
77016;SDS011;65949;53.132;17.930;2024-02-26T11:10:01;23.70;;;12.30;;
77016;SDS011;65949;53.132;17.930;2024-02-26T11:12:29;26.80;;;13.50;;
77016;SDS011;65949;53.132;17.930;2024-02-26T11:14:58;23.20;;;12.10;;
77016;SDS011;65949;53.132;17.930;2024-02-26T11:17:28;22.70;;;11.40;;
77016;SDS011;65949;53.132;17.930;2024-02-26T11:19:58;22.90;;;11.50;;
77016;SDS011;65949;53.132;17.930;2024-02-26T11:22:26;22.00;;;11.40;;
77016;SDS011;65949;53.132;17.930;2024-02-26T11:24:53;21.10;;;11.30;;
77016;SDS011;65949;53.132;17.930;2024-02-26T11:27:23;19.30;;;10.40;;
77016;SDS011;65949;53.132;17.930;2024-02-26T11:29:53;20.00;;;11.30;;
77016;SDS011;65949;53.132;17.930;2024-02-26T11:32:20;19.90;;;11.50;;
77016;SDS011;65949;53.132;17.930;2024-02-26T11:34:48;24.60;;;11.60;;
77016;SDS011;65949;53.132;17.930;2024-02-26T11:37:16;22.20;;;11.70;;
77016;SDS011;65949;53.132;17.930;2024-02-26T11:39:44;21.40;;;12.30;;
77016;SDS011;65949;53.132;17.930;2024-02-26T11:42:15;25.90;;;12.70;;
77016;SDS011;65949;53.132;17.930;2024-02-26T11:44:42;23.50;;;12.50;;
77016;SDS011;65949;53.132;17.930;2024-02-26T11:47:11;25.30;;;14.20;;
77016;SDS011;65949;53.132;17.930;2024-02-26T11:49:39;27.80;;;13.60;;
77016;SDS011;65949;53.132;17.930;2024-02-26T11:52:09;23.60;;;13.10;;
77016;SDS011;65949;53.132;17.930;2024-02-26T11:54:53;26.70;;;13.90;;
77016;SDS011;65949;53.132;17.930;2024-02-26T12:02:46;27.30;;;15.50;;
77016;SDS011;65949;53.132;17.930;2024-02-26T12:07:45;27.70;;;13.90;;
77016;SDS011;65949;53.132;17.930;2024-02-26T12:12:58;27.10;;;15.20;;
77016;SDS011;65949;53.132;17.930;2024-02-26T12:15:30;26.30;;;14.30;;
77016;SDS011;65949;53.132;17.930;2024-02-26T12:18:02;28.90;;;14.90;;
77016;SDS011;65949;53.132;17.930;2024-02-26T12:20:30;26.10;;;13.30;;
77016;SDS011;65949;53.132;17.930;2024-02-26T12:22:57;24.60;;;13.90;;
77016;SDS011;65949;53.132;17.930;2024-02-26T12:25:28;26.10;;;14.80;;
77016;SDS011;65949;53.132;17.930;2024-02-26T12:27:55;31.20;;;14.10;;
77016;SDS011;65949;53.132;17.930;2024-02-26T12:30:22;28.90;;;15.60;;
77016;SDS011;65949;53.132;17.930;2024-02-26T12:32:52;30.70;;;14.50;;
77016;SDS011;65949;53.132;17.930;2024-02-26T12:35:23;29.00;;;14.60;;
77016;SDS011;65949;53.132;17.930;2024-02-26T12:37:51;26.90;;;13.60;;
77016;SDS011;65949;53.132;17.930;2024-02-26T12:40:20;23.40;;;13.10;;
77016;SDS011;65949;53.132;17.930;2024-02-26T12:42:47;22.60;;;13.00;;
77016;SDS011;65949;53.132;17.930;2024-02-26T12:45:15;23.20;;;13.40;;
77016;SDS011;65949;53.132;17.930;2024-02-26T12:47:43;23.20;;;12.30;;
77016;SDS011;65949;53.132;17.930;2024-02-26T12:50:12;22.30;;;10.90;;
77016;SDS011;65949;53.132;17.930;2024-02-26T12:52:39;20.60;;;10.80;;
77016;SDS011;65949;53.132;17.930;2024-02-26T12:55:09;20.10;;;10.10;;
77016;SDS011;65949;53.132;17.930;2024-02-26T12:57:39;23.00;;;10.30;;
77016;SDS011;65949;53.132;17.930;2024-02-26T13:00:11;24.60;;;11.10;;
77016;SDS011;65949;53.132;17.930;2024-02-26T13:02:41;23.30;;;11.30;;
77016;SDS011;65949;53.132;17.930;2024-02-26T13:05:12;21.30;;;10.80;;
77016;SDS011;65949;53.132;17.930;2024-02-26T13:07:44;18.10;;;10.00;;
77016;SDS011;65949;53.132;17.930;2024-02-26T13:10:12;19.80;;;10.50;;
77016;SDS011;65949;53.132;17.930;2024-02-26T13:12:45;20.50;;;9.30;;
77016;SDS011;65949;53.132;17.930;2024-02-26T13:15:14;19.20;;;9.60;;
77016;SDS011;65949;53.132;17.930;2024-02-26T13:17:46;19.90;;;10.10;;
77016;SDS011;65949;53.132;17.930;2024-02-26T13:20:24;20.20;;;11.10;;
77016;SDS011;65949;53.132;17.930;2024-02-26T13:23:02;21.10;;;9.90;;
77016;SDS011;65949;53.132;17.930;2024-02-26T13:25:29;17.50;;;9.40;;
77016;SDS011;65949;53.132;17.930;2024-02-26T13:28:09;19.60;;;9.50;;
77016;SDS011;65949;53.132;17.930;2024-02-26T13:30:49;19.70;;;9.80;;
77016;SDS011;65949;53.132;17.930;2024-02-26T13:33:18;20.80;;;10.30;;
77016;SDS011;65949;53.132;17.930;2024-02-26T13:35:45;17.50;;;10.10;;
77016;SDS011;65949;53.132;17.930;2024-02-26T13:38:12;24.10;;;11.90;;
77016;SDS011;65949;53.132;17.930;2024-02-26T13:40:39;22.50;;;11.30;;
77016;SDS011;65949;53.132;17.930;2024-02-26T13:43:06;19.70;;;11.20;;
77016;SDS011;65949;53.132;17.930;2024-02-26T13:45:37;23.00;;;11.10;;
77016;SDS011;65949;53.132;17.930;2024-02-26T13:48:05;21.60;;;10.80;;
77016;SDS011;65949;53.132;17.930;2024-02-26T13:50:33;20.50;;;10.30;;
77016;SDS011;65949;53.132;17.930;2024-02-26T13:53:00;22.60;;;11.60;;
77016;SDS011;65949;53.132;17.930;2024-02-26T13:55:27;22.40;;;11.20;;
77016;SDS011;65949;53.132;17.930;2024-02-26T13:57:56;22.10;;;10.10;;
77016;SDS011;65949;53.132;17.930;2024-02-26T14:00:24;19.50;;;10.50;;
77016;SDS011;65949;53.132;17.930;2024-02-26T14:02:51;20.00;;;9.60;;
77016;SDS011;65949;53.132;17.930;2024-02-26T14:05:18;29.90;;;13.80;;
77016;SDS011;65949;53.132;17.930;2024-02-26T14:07:44;27.30;;;13.10;;
77016;SDS011;65949;53.132;17.930;2024-02-26T14:10:11;27.90;;;13.00;;
77016;SDS011;65949;53.132;17.930;2024-02-26T14:12:38;26.40;;;12.70;;
77016;SDS011;65949;53.132;17.930;2024-02-26T14:15:06;29.50;;;13.10;;
77016;SDS011;65949;53.132;17.930;2024-02-26T14:17:33;24.00;;;12.10;;
77016;SDS011;65949;53.132;17.930;2024-02-26T14:20:00;26.50;;;12.70;;